createdAt,value
2018-04-16T00:02:03.702Z,64.70
2018-04-16T00:04:31.195Z,64.80
2018-04-16T00:06:58.690Z,65.00
2018-04-16T00:09:26.194Z,64.30
2018-04-16T00:11:53.679Z,65.20
2018-04-16T00:14:21.168Z,65.00
2018-04-16T00:16:48.710Z,64.80
2018-04-16T00:19:16.208Z,65.20
2018-04-16T00:21:43.695Z,65.50
2018-04-16T00:24:11.979Z,65.70
2018-04-16T00:26:40.235Z,65.40
2018-04-16T00:29:07.761Z,65.30
2018-04-16T00:31:40.861Z,65.80
2018-04-16T00:34:14.832Z,64.90
2018-04-16T00:36:48.043Z,64.90
2018-04-16T00:39:21.301Z,65.20
2018-04-16T00:41:55.177Z,65.70
2018-04-16T00:44:28.361Z,65.70
2018-04-16T00:47:01.568Z,65.80
2018-04-16T00:49:34.717Z,65.90
2018-04-16T00:52:07.915Z,65.80
2018-04-16T00:54:41.165Z,64.90
2018-04-16T00:57:15.134Z,64.50
2018-04-16T00:59:48.229Z,64.50
2018-04-16T01:02:22.297Z,66.20
2018-04-16T01:04:55.321Z,66.20
2018-04-16T01:07:28.565Z,65.70
2018-04-16T01:10:02.540Z,65.60
2018-04-16T01:12:36.420Z,65.60
2018-04-16T01:15:09.513Z,65.50
2018-04-16T01:17:42.786Z,65.10
2018-04-16T01:20:16.049Z,66.00
2018-04-16T01:22:50.028Z,66.00
2018-04-16T01:25:23.253Z,66.00
2018-04-16T01:27:56.453Z,65.90
2018-04-16T01:30:30.366Z,66.10
2018-04-16T01:33:04.214Z,66.10
2018-04-16T01:35:37.329Z,66.10
2018-04-16T01:38:10.577Z,65.20
2018-04-16T01:40:43.695Z,64.80
2018-04-16T01:43:16.907Z,64.90
2018-04-16T01:45:50.133Z,65.40
2018-04-16T01:48:23.360Z,66.20
2018-04-16T01:50:56.636Z,67.10
2018-04-16T01:53:29.857Z,67.30
2018-04-16T01:56:02.982Z,66.50
2018-04-16T01:58:36.244Z,66.10
2018-04-16T02:01:09.494Z,67.00
2018-04-16T02:03:43.323Z,68.30
2018-04-16T02:06:16.333Z,68.30
2018-04-16T02:08:49.540Z,68.20
2018-04-16T02:11:22.745Z,70.00
2018-04-16T02:13:55.928Z,70.40
2018-04-16T02:16:28.997Z,69.00
2018-04-16T02:19:02.096Z,69.70
2018-04-16T02:21:35.162Z,69.00
2018-04-16T02:24:08.258Z,68.40
2018-04-16T02:26:41.490Z,70.30
2018-04-16T02:29:14.686Z,69.80
2018-04-16T02:31:47.838Z,71.60
2018-04-16T02:34:21.097Z,71.40
2018-04-16T02:36:55.026Z,70.70
2018-04-16T02:39:28.188Z,70.70
2018-04-16T02:42:01.293Z,70.30
2018-04-16T02:44:35.253Z,70.80
2018-04-16T02:47:08.458Z,70.90
2018-04-16T02:49:41.493Z,71.80
2018-04-16T02:52:15.355Z,75.50
2018-04-16T02:54:48.577Z,75.50
2018-04-16T02:57:21.759Z,76.70
2018-04-16T02:59:54.893Z,76.10
2018-04-16T03:02:28.071Z,79.10
2018-04-16T03:05:02.020Z,81.70
2018-04-16T03:07:35.236Z,81.70
2018-04-16T03:10:08.486Z,84.40
2018-04-16T03:12:41.611Z,84.40
2018-04-16T03:15:14.928Z,85.20
2018-04-16T03:17:48.207Z,85.80
2018-04-16T03:20:31.483Z,86.50
2018-04-16T03:23:04.556Z,87.00
2018-04-16T03:25:38.390Z,86.20
2018-04-16T03:28:11.524Z,86.20
2018-04-16T03:30:44.844Z,87.80
2018-04-16T03:33:17.983Z,88.70
2018-04-16T03:38:55.394Z,89.90
2018-04-16T03:41:28.613Z,90.30
2018-04-16T03:44:01.811Z,90.10
2018-04-16T03:46:49.151Z,90.30
2018-04-16T03:49:22.972Z,91.10
2018-04-16T03:52:06.261Z,91.10
2018-04-16T03:54:34.524Z,91.10
2018-04-16T03:57:02.001Z,91.10
2018-04-16T03:59:29.508Z,91.10
2018-04-16T04:01:57.009Z,91.30
2018-04-16T04:04:24.485Z,91.50
2018-04-16T04:06:51.990Z,91.60
2018-04-16T04:09:19.485Z,91.60
2018-04-16T04:11:47.739Z,91.60
2018-04-16T04:14:15.233Z,91.60
2018-04-16T04:16:42.710Z,91.80
2018-04-16T04:19:10.217Z,91.90
2018-04-16T04:21:38.475Z,92.20
2018-04-16T04:24:18.617Z,92.20
2018-04-16T04:26:58.588Z,92.30
2018-04-16T04:29:38.095Z,92.30
2018-04-16T04:32:05.580Z,92.30
2018-04-16T04:34:33.072Z,92.60
2018-04-16T04:37:00.560Z,92.40
2018-04-16T04:39:28.061Z,92.50
2018-04-16T04:41:56.336Z,92.40
2018-04-16T04:44:24.591Z,92.30
2018-04-16T04:46:52.083Z,92.30
2018-04-16T04:49:20.353Z,92.40
2018-04-16T04:51:48.603Z,92.30
2018-04-16T04:54:16.084Z,92.30
2018-04-16T04:56:43.578Z,92.10
2018-04-16T04:59:11.082Z,92.10
2018-04-16T05:01:38.569Z,92.20
2018-04-16T05:04:06.064Z,92.20
2018-04-16T05:06:33.606Z,92.30
2018-04-16T05:09:01.124Z,92.30
2018-04-16T05:11:28.625Z,92.30
2018-04-16T05:13:56.117Z,92.40
2018-04-16T05:16:23.624Z,92.50
2018-04-16T05:18:51.141Z,92.40
2018-04-16T05:21:19.401Z,92.50
2018-04-16T05:23:47.685Z,92.40
2018-04-16T05:26:15.928Z,92.40
2018-04-16T05:28:43.449Z,92.30
2018-04-16T05:31:10.942Z,92.40
2018-04-16T05:33:38.426Z,92.50
2018-04-16T05:36:05.916Z,92.60
2018-04-16T05:38:34.221Z,92.60
2018-04-16T05:41:01.735Z,92.60
2018-04-16T05:43:29.260Z,92.70
2018-04-16T05:45:56.751Z,92.70
2018-04-16T05:48:24.253Z,92.70
2018-04-16T05:50:52.526Z,92.70
2018-04-16T05:53:20.826Z,92.70
2018-04-16T05:55:48.331Z,92.70
2018-04-16T05:58:15.844Z,92.70
2018-04-16T06:00:44.116Z,92.90
2018-04-16T06:03:12.371Z,92.90
2018-04-16T06:05:39.885Z,92.90
2018-04-16T06:08:08.185Z,93.10
2018-04-16T06:10:35.678Z,93.10
2018-04-16T06:13:03.175Z,93.10
2018-04-16T06:15:31.453Z,93.10
2018-04-16T06:17:58.985Z,93.10
2018-04-16T06:20:26.477Z,93.20
2018-04-16T06:22:54.749Z,93.20
2018-04-16T06:25:22.273Z,93.20
2018-04-16T06:27:49.827Z,93.30
2018-04-16T06:30:17.343Z,93.30
2018-04-16T06:32:44.873Z,93.50
2018-04-16T06:35:12.387Z,93.20
2018-04-16T06:37:40.637Z,93.30
2018-04-16T06:40:08.145Z,93.20
2018-04-16T06:42:35.667Z,93.20
2018-04-16T06:45:03.960Z,93.20
2018-04-16T06:47:32.237Z,93.30
2018-04-16T06:50:00.527Z,93.40
2018-04-16T06:52:28.791Z,93.40
2018-04-16T06:54:56.544Z,93.40
2018-04-16T06:57:24.055Z,93.20
2018-04-16T06:59:51.588Z,93.40
2018-04-16T07:02:19.866Z,93.20
2018-04-16T07:04:48.163Z,93.10
2018-04-16T07:07:15.711Z,93.00
2018-04-16T07:09:43.266Z,93.00
2018-04-16T07:12:10.768Z,93.00
2018-04-16T07:14:38.301Z,93.20
2018-04-16T07:17:05.817Z,93.00
2018-04-16T07:19:33.339Z,92.90
2018-04-16T07:22:01.637Z,92.80
2018-04-16T07:24:29.124Z,92.80
2018-04-16T07:26:56.681Z,92.50
2018-04-16T07:29:24.181Z,92.60
2018-04-16T07:31:51.704Z,92.50
2018-04-16T07:34:19.201Z,92.40
2018-04-16T07:36:46.715Z,92.10
2018-04-16T07:39:14.248Z,92.10
2018-04-16T07:41:41.747Z,91.90
2018-04-16T07:44:09.260Z,91.90
2018-04-16T07:46:36.775Z,91.60
2018-04-16T07:49:04.305Z,91.60
2018-04-16T07:51:31.797Z,91.20
2018-04-16T07:53:59.304Z,90.90
2018-04-16T07:56:26.795Z,91.30
2018-04-16T07:58:54.299Z,90.30
2018-04-16T08:01:21.845Z,90.40
2018-04-16T08:03:49.307Z,90.60
2018-04-16T08:06:16.848Z,90.90
2018-04-16T08:08:44.494Z,90.30
2018-04-16T08:11:12.005Z,90.00
2018-04-16T08:13:39.518Z,89.60
2018-04-16T08:16:07.034Z,90.00
2018-04-16T08:18:34.539Z,90.70
2018-04-16T08:21:02.024Z,91.20
2018-04-16T08:23:30.311Z,91.50
2018-04-16T08:25:58.566Z,91.20
2018-04-16T08:28:26.086Z,91.10
2018-04-16T08:30:53.588Z,91.00
2018-04-16T08:33:21.146Z,91.00
2018-04-16T08:35:48.644Z,91.00
2018-04-16T08:38:16.921Z,90.80
2018-04-16T08:40:45.190Z,91.10
2018-04-16T08:43:12.695Z,90.70
2018-04-16T08:45:40.189Z,90.50
2018-04-16T08:48:07.698Z,90.00
2018-04-16T08:50:35.988Z,90.60
2018-04-16T08:53:04.270Z,90.50
2018-04-16T08:55:32.537Z,90.00
2018-04-16T08:58:00.812Z,90.10
2018-04-16T09:00:29.079Z,90.10
2018-04-16T09:02:56.571Z,90.40
2018-04-16T09:05:24.851Z,89.70
2018-04-16T09:07:53.111Z,89.70
2018-04-16T09:10:20.647Z,89.70
2018-04-16T09:12:48.158Z,88.70
2018-04-16T09:15:15.660Z,88.80
2018-04-16T09:17:43.213Z,90.00
2018-04-16T09:20:10.753Z,89.40
2018-04-16T09:22:38.253Z,90.10
2018-04-16T09:25:05.753Z,90.40
2018-04-16T09:27:33.347Z,90.10
2018-04-16T09:30:01.563Z,88.00
2018-04-16T09:32:29.060Z,88.20
2018-04-16T09:34:56.556Z,88.50
2018-04-16T09:37:24.134Z,87.50
2018-04-16T09:39:51.657Z,82.30
2018-04-16T09:42:19.917Z,83.80
2018-04-16T09:44:47.406Z,83.30
2018-04-16T09:47:15.672Z,83.50
2018-04-16T09:49:43.173Z,83.50
2018-04-16T09:52:10.662Z,82.90
2018-04-16T09:54:38.184Z,83.50
2018-04-16T09:57:06.438Z,82.70
2018-04-16T09:59:33.967Z,83.30
2018-04-16T10:02:01.487Z,82.60
2018-04-16T10:04:29.939Z,79.20
2018-04-16T10:06:57.541Z,79.10
2018-04-16T10:09:25.829Z,78.00
2018-04-16T10:11:53.340Z,78.00
2018-04-16T10:14:20.839Z,78.80
2018-04-16T10:16:49.107Z,77.70
2018-04-16T10:19:16.628Z,77.60
2018-04-16T10:21:44.135Z,76.90
2018-04-16T10:24:11.674Z,79.00
2018-04-16T10:26:40.199Z,76.60
2018-04-16T10:29:07.739Z,78.30
2018-04-16T10:31:35.269Z,78.80
2018-04-16T10:34:02.779Z,79.40
2018-04-16T10:36:31.060Z,80.30
2018-04-16T10:38:59.356Z,80.60
2018-04-16T10:41:27.616Z,81.50
2018-04-16T10:43:55.103Z,81.40
2018-04-16T10:46:22.606Z,81.90
2018-04-16T10:48:50.175Z,81.80
2018-04-16T10:51:17.665Z,81.70
2018-04-16T10:53:45.191Z,81.80
2018-04-16T10:56:12.697Z,80.90
2018-04-16T10:58:40.196Z,81.10
2018-04-16T11:01:07.707Z,81.60
2018-04-16T11:03:35.198Z,80.80
2018-04-16T11:06:03.468Z,82.10
2018-04-16T11:08:31.733Z,81.30
2018-04-16T11:10:59.226Z,81.30
2018-04-16T11:13:27.527Z,81.70
2018-04-16T11:15:55.025Z,81.60
2018-04-16T11:18:22.534Z,80.80
2018-04-16T11:20:50.801Z,81.10
2018-04-16T11:23:19.076Z,82.00
2018-04-16T11:25:47.384Z,81.50
2018-04-16T11:28:14.889Z,81.50
2018-04-16T11:30:42.404Z,82.60
2018-04-16T11:33:09.917Z,82.80
2018-04-16T11:35:37.407Z,81.50
2018-04-16T11:38:04.894Z,82.80
2018-04-16T11:40:32.402Z,81.20
2018-04-16T11:42:59.885Z,80.00
2018-04-16T11:45:27.381Z,79.90
2018-04-16T11:47:54.901Z,79.70
2018-04-16T11:50:22.397Z,79.30
2018-04-16T11:52:50.655Z,80.10
2018-04-16T11:55:18.185Z,80.10
2018-04-16T11:57:45.675Z,80.40
2018-04-16T12:00:13.188Z,79.60
2018-04-16T12:02:40.685Z,79.80
2018-04-16T12:05:08.173Z,80.90
2018-04-16T12:07:35.678Z,80.90
2018-04-16T12:10:03.239Z,82.70
2018-04-16T12:12:30.723Z,81.30
2018-04-16T12:14:58.213Z,79.30
2018-04-16T12:17:25.745Z,79.20
2018-04-16T12:19:53.259Z,79.50
2018-04-16T12:22:20.751Z,78.60
2018-04-16T12:24:48.242Z,78.10
2018-04-16T12:27:15.740Z,78.40
2018-04-16T12:29:43.268Z,78.30
2018-04-16T12:32:10.775Z,79.70
2018-04-16T12:34:38.271Z,79.10
2018-04-16T12:37:05.767Z,77.90
2018-04-16T12:39:34.040Z,78.50
2018-04-16T12:42:02.306Z,79.60
2018-04-16T12:44:29.806Z,78.90
2018-04-16T12:46:57.320Z,78.90
2018-04-16T12:49:24.832Z,80.20
2018-04-16T12:51:52.324Z,79.10
2018-04-16T12:54:20.586Z,80.40
2018-04-16T12:56:48.068Z,80.40
2018-04-16T12:59:16.345Z,79.50
2018-04-16T13:01:44.604Z,80.20
2018-04-16T13:04:12.111Z,80.20
2018-04-16T13:06:39.671Z,80.50
2018-04-16T13:09:07.178Z,81.90
2018-04-16T13:11:34.653Z,80.40
2018-04-16T13:14:02.143Z,79.70
2018-04-16T13:16:30.403Z,80.20
2018-04-16T13:18:57.891Z,80.30
2018-04-16T13:21:25.399Z,76.90
2018-04-16T13:23:52.913Z,76.80
2018-04-16T13:26:21.172Z,75.30
2018-04-16T13:28:48.668Z,75.30
2018-04-16T13:33:44.471Z,77.50
2018-04-16T13:36:11.958Z,76.10
2018-04-16T13:38:40.203Z,74.50
2018-04-16T13:41:07.742Z,74.50
2018-04-16T13:43:35.227Z,74.50
2018-04-16T13:46:02.786Z,76.20
2018-04-16T13:48:30.301Z,75.90
2018-04-16T13:50:58.574Z,73.00
2018-04-16T13:53:26.898Z,74.10
2018-04-16T13:55:54.395Z,74.10
2018-04-16T13:58:21.897Z,73.80
2018-04-16T14:00:49.446Z,72.60
2018-04-16T14:03:17.893Z,72.40
2018-04-16T14:05:45.405Z,72.40
2018-04-16T14:08:12.905Z,71.80
2018-04-16T14:10:40.542Z,72.80
2018-04-16T14:13:08.041Z,71.50
2018-04-16T14:15:35.567Z,69.80
2018-04-16T14:18:03.083Z,72.00
2018-04-16T14:20:30.586Z,66.80
2018-04-16T14:22:58.090Z,64.80
2018-04-16T14:25:25.582Z,68.60
2018-04-16T14:27:53.117Z,66.90
2018-04-16T14:30:20.642Z,68.10
2018-04-16T14:32:48.139Z,69.80
2018-04-16T14:35:15.650Z,67.90
2018-04-16T14:37:43.924Z,68.80
2018-04-16T14:40:12.208Z,68.70
2018-04-16T14:42:40.502Z,67.30
2018-04-16T14:45:08.003Z,67.20
2018-04-16T14:47:35.538Z,65.40
2018-04-16T14:50:03.044Z,66.10
2018-04-16T14:52:30.536Z,64.00
2018-04-16T14:54:58.800Z,58.80
2018-04-16T14:57:26.300Z,58.70
2018-04-16T14:59:53.867Z,59.30
2018-04-16T15:02:21.411Z,61.90
2018-04-16T15:04:48.916Z,61.70
2018-04-16T15:07:16.406Z,57.80
2018-04-16T15:09:43.916Z,58.00
2018-04-16T15:12:11.420Z,57.10
2018-04-16T15:14:38.910Z,54.40
2018-04-16T15:17:06.431Z,55.90
2018-04-16T15:19:33.936Z,53.40
2018-04-16T15:22:01.426Z,52.70
2018-04-16T15:24:28.913Z,57.60
2018-04-16T15:26:56.428Z,55.80
2018-04-16T15:29:24.698Z,59.80
2018-04-16T15:31:52.189Z,59.90
2018-04-16T15:34:20.441Z,61.60
2018-04-16T15:36:47.981Z,61.60
2018-04-16T15:39:15.476Z,63.00
2018-04-16T15:41:42.982Z,62.80
2018-04-16T15:44:10.503Z,63.70
2018-04-16T15:46:37.985Z,64.10
2018-04-16T15:49:06.240Z,66.50
2018-04-16T15:51:33.755Z,66.50
2018-04-16T15:54:01.282Z,68.60
2018-04-16T15:56:29.538Z,70.30
2018-04-16T15:58:57.045Z,70.20
2018-04-16T16:01:24.577Z,69.80
2018-04-16T16:03:52.098Z,70.50
2018-04-16T16:06:19.602Z,71.20
2018-04-16T16:08:47.098Z,71.30
2018-04-16T16:11:14.812Z,71.40
2018-04-16T16:13:42.303Z,73.30
2018-04-16T16:16:10.561Z,73.60
2018-04-16T16:18:38.061Z,73.50
2018-04-16T16:21:06.369Z,73.20
2018-04-16T16:23:33.867Z,73.20
2018-04-16T16:26:02.211Z,71.60
2018-04-16T16:28:29.735Z,72.00
2018-04-16T16:30:58.026Z,72.60
2018-04-16T16:33:26.313Z,71.50
2018-04-16T16:35:54.051Z,71.40
2018-04-16T16:38:22.351Z,70.60
2018-04-16T16:40:49.912Z,70.50
2018-04-16T16:43:17.417Z,71.40
2018-04-16T16:45:44.899Z,70.80
2018-04-16T16:48:12.412Z,71.20
2018-04-16T16:50:40.709Z,73.10
2018-04-16T16:53:08.201Z,73.00
2018-04-16T16:55:35.685Z,72.60
2018-04-16T16:58:03.209Z,71.90
2018-04-16T17:00:30.727Z,71.90
2018-04-16T17:02:58.397Z,72.80
2018-04-16T17:05:25.975Z,73.30
2018-04-16T17:07:54.466Z,72.70
2018-04-16T17:10:22.003Z,72.70
2018-04-16T17:12:49.537Z,73.20
2018-04-16T17:15:17.102Z,75.10
2018-04-16T17:17:44.600Z,73.90
2018-04-16T17:20:12.149Z,76.10
2018-04-16T17:22:39.634Z,77.40
2018-04-16T17:25:07.893Z,78.60
2018-04-16T17:27:35.438Z,78.60
2018-04-16T17:30:02.932Z,78.80
2018-04-16T17:32:31.215Z,79.90
2018-04-16T17:34:59.530Z,77.80
2018-04-16T17:37:27.050Z,77.70
2018-04-16T17:39:54.558Z,77.10
2018-04-16T17:42:22.067Z,76.50
2018-04-16T17:44:49.564Z,76.80
2018-04-16T17:47:17.076Z,75.40
2018-04-16T17:49:44.590Z,75.20
2018-04-16T17:52:12.127Z,74.70
2018-04-16T17:54:39.647Z,74.40
2018-04-16T17:57:07.138Z,74.80
2018-04-16T17:59:34.627Z,74.70
2018-04-16T18:02:02.155Z,75.40
2018-04-16T18:04:29.651Z,75.40
2018-04-16T18:06:58.058Z,75.90
2018-04-16T18:09:25.639Z,75.90
2018-04-16T18:11:53.131Z,75.70
2018-04-16T18:14:20.629Z,75.60
2018-04-16T18:16:48.873Z,78.00
2018-04-16T18:19:16.394Z,77.80
2018-04-16T18:21:43.902Z,77.90
2018-04-16T18:24:11.394Z,78.40
2018-04-16T18:26:38.893Z,79.30
2018-04-16T18:29:06.405Z,79.00
2018-04-16T18:31:33.945Z,79.10
2018-04-16T18:34:02.227Z,79.00
2018-04-16T18:36:29.738Z,78.90
2018-04-16T18:38:57.253Z,79.10
2018-04-16T18:41:25.527Z,80.90
2018-04-16T18:43:53.039Z,80.80
2018-04-16T18:46:21.299Z,80.10
2018-04-16T18:48:48.831Z,80.10
2018-04-16T18:57:13.248Z,81.00
2018-04-16T18:59:40.741Z,81.00
2018-04-16T19:02:08.246Z,81.20
2018-04-16T19:04:35.738Z,80.70
2018-04-16T19:07:03.270Z,80.80
2018-04-16T19:09:30.773Z,80.20
2018-04-16T19:11:58.290Z,78.80
2018-04-16T19:14:26.561Z,77.80
2018-04-16T19:16:54.857Z,77.20
2018-04-16T19:19:22.366Z,77.20
2018-04-16T19:21:53.700Z,77.50
2018-04-16T19:24:21.231Z,75.60
2018-04-16T19:26:55.282Z,77.00
2018-04-16T19:29:22.802Z,77.00
2018-04-16T19:48:59.890Z,76.30
2018-04-16T20:06:16.711Z,78.90
2018-04-16T20:08:44.251Z,78.70
2018-04-16T20:11:11.812Z,78.80
2018-04-16T20:13:39.329Z,78.70
2018-04-16T20:16:07.634Z,80.30
2018-04-16T20:18:35.151Z,80.30
2018-04-16T20:21:02.690Z,80.20
2018-04-16T20:23:30.261Z,80.50
2018-04-16T20:25:57.801Z,79.60
2018-04-16T20:28:25.323Z,79.30
2018-04-16T20:30:52.884Z,79.70
2018-04-16T20:33:21.178Z,80.40
2018-04-16T20:35:49.491Z,80.90
2018-04-16T20:38:17.016Z,80.90
2018-04-16T20:40:45.334Z,81.60
2018-04-16T20:43:12.864Z,81.50
2018-04-16T20:45:41.190Z,81.30
2018-04-16T20:48:08.712Z,81.30
2018-04-16T20:50:37.021Z,82.40
2018-04-16T20:53:04.581Z,82.40
2018-04-16T20:55:32.116Z,82.80
2018-04-16T20:58:00.461Z,82.80
2018-04-16T21:00:29.103Z,82.70
2018-04-16T21:02:56.638Z,82.60
2018-04-16T21:05:24.576Z,82.30
2018-04-16T21:07:52.915Z,83.10
2018-04-16T21:10:21.211Z,82.90
2018-04-16T21:12:48.745Z,82.80
2018-04-16T21:15:17.040Z,82.70
2018-04-16T21:17:44.593Z,82.60
2018-04-16T21:20:12.140Z,82.90
2018-04-16T21:22:39.665Z,83.20
2018-04-16T21:25:07.360Z,83.70
2018-04-16T21:27:34.898Z,83.70
2018-04-16T21:30:02.419Z,83.70
2018-04-16T21:32:29.959Z,83.90
2018-04-16T21:34:57.500Z,83.90
2018-04-16T21:37:25.012Z,83.60
2018-04-16T21:39:53.353Z,83.50
2018-04-16T21:42:20.880Z,84.10
2018-04-16T21:44:48.409Z,83.50
2018-04-16T21:47:16.707Z,83.60
2018-04-16T21:49:44.235Z,83.50
2018-04-16T21:52:11.767Z,83.70
2018-04-16T21:54:39.302Z,83.40
2018-04-16T21:57:06.833Z,83.20
2018-04-16T21:59:34.352Z,83.60
2018-04-16T22:02:02.016Z,83.70
2018-04-16T22:04:29.664Z,83.90
2018-04-16T22:06:57.312Z,84.00
2018-04-16T22:09:25.747Z,84.40
2018-04-16T22:11:53.403Z,84.40
2018-04-16T22:14:21.056Z,85.10
2018-04-16T22:17:20.444Z,84.90
2018-04-16T22:19:48.100Z,85.10
2018-04-16T22:22:15.739Z,84.80
2018-04-16T22:24:43.383Z,84.80
2018-04-16T22:27:11.793Z,84.40
2018-04-16T22:29:39.425Z,84.40
2018-04-16T22:32:07.072Z,85.90
2018-04-16T22:34:34.724Z,84.20
2018-04-16T22:37:02.363Z,84.80
2018-04-16T22:39:30.790Z,84.70
2018-04-16T22:41:58.481Z,84.70
2018-04-16T22:44:26.123Z,85.50
2018-04-16T22:46:53.754Z,85.50
2018-04-16T22:49:22.161Z,85.20
2018-04-16T22:51:51.973Z,85.00
2018-04-16T22:54:19.610Z,84.90
2018-04-16T22:56:48.871Z,84.50
2018-04-16T22:59:16.509Z,84.50
2018-04-16T23:01:44.185Z,84.20
2018-04-16T23:04:11.844Z,84.50
2018-04-16T23:06:39.474Z,85.30
2018-04-16T23:09:07.902Z,85.50
2018-04-16T23:11:35.572Z,85.40
2018-04-16T23:14:03.210Z,85.50
2018-04-16T23:16:30.848Z,85.60
2018-04-16T23:18:58.533Z,86.00
2018-04-16T23:21:26.939Z,86.00
2018-04-16T23:23:54.543Z,86.00
2018-04-16T23:26:22.177Z,86.80
2018-04-16T23:28:49.782Z,86.40
2018-04-16T23:31:17.397Z,86.00
2018-04-16T23:33:45.019Z,86.10
2018-04-16T23:36:13.444Z,86.20
2018-04-16T23:38:41.814Z,86.10
2018-04-16T23:41:10.228Z,86.00
2018-04-16T23:43:37.851Z,85.90
2018-04-16T23:46:06.219Z,86.20
2018-04-16T23:48:33.809Z,86.10
2018-04-16T23:51:02.199Z,86.10
2018-04-16T23:53:30.577Z,85.90
2018-04-16T23:55:58.967Z,85.80
2018-04-16T23:58:26.584Z,85.80
